createdAt,value
2023-04-10T00:01:02.037Z,1022.8
2023-04-10T00:31:02.000Z,1022.58
2023-04-10T01:01:02.092Z,1022.39
2023-04-10T01:31:02.090Z,1022.29
2023-04-10T02:01:02.025Z,1022.38
2023-04-10T02:31:02.126Z,1022.4
2023-04-10T03:01:02.053Z,1022.38
2023-04-10T03:31:02.103Z,1022.38
2023-04-10T04:01:02.046Z,1022.23
2023-04-10T04:31:02.056Z,1022.15
2023-04-10T05:01:02.108Z,1022.51
2023-04-10T05:31:02.135Z,1022.64
2023-04-10T06:01:02.081Z,1022.59
2023-04-10T06:31:02.099Z,1022.45
2023-04-10T07:01:02.169Z,1022.37
2023-04-10T07:31:02.110Z,1022.34
2023-04-10T08:01:02.087Z,1022.05
2023-04-10T08:31:02.225Z,1022.03
2023-04-10T09:01:02.086Z,1021.82
2023-04-10T09:31:02.271Z,1021.59
2023-04-10T10:01:02.138Z,1021.21
2023-04-10T10:31:02.104Z,1020.7
2023-04-10T11:01:02.142Z,1020.35
2023-04-10T11:31:02.199Z,1019.82
2023-04-10T12:01:02.120Z,1019.45
2023-04-10T12:31:02.142Z,1019.25
2023-04-10T13:01:02.165Z,1018.75
2023-04-10T13:31:02.214Z,1018.49
2023-04-10T14:01:02.218Z,1017.81
2023-04-10T14:31:02.136Z,1017.52
2023-04-10T15:01:02.146Z,1017.26
2023-04-10T15:31:02.262Z,1016.87
2023-04-10T16:01:02.165Z,1016.53
2023-04-10T16:31:02.217Z,1016.4
2023-04-10T17:01:02.202Z,1015.94
2023-04-10T17:31:02.179Z,1015.49
2023-04-10T18:01:02.216Z,1015.39
2023-04-10T18:31:02.299Z,1015.06
2023-04-10T19:01:02.295Z,1014.8
2023-04-10T19:31:02.252Z,1014.68
2023-04-10T20:01:02.229Z,1014.52
2023-04-10T20:31:02.234Z,1014.52
2023-04-10T21:01:02.270Z,1013.92
2023-04-10T21:31:02.217Z,1013.7
2023-04-10T22:01:02.241Z,1013.16
2023-04-10T22:31:02.333Z,1012.82
2023-04-10T23:01:02.178Z,1012.32
2023-04-10T23:31:02.262Z,1012.03
